Check out our new PWSWeather beta!
PWSweather.com
Personal Weather Stations
Station Observations
OINOFYTA
Oinofyta Greece, OinofytaGR 320 11

Oinofyta GreeceOinofytaGR 320 11

Lat: 38.3080648, Lon: 23.6391172

Elevation: 354

Station Type: ProWeatherStation 1080

https://oinofytaweather.gr/

High Low Average
Temperature 37.9°F3.3°C 33.1°F0.6°C 35.4°F1.9°C
Dew Point 37.7°F3.2°C 32.8°F0.4°C 35.2°F1.8°C
Winds 7.2 mph 11.6 kmh 1.2 mph 1.9 kmh 4.0 mph WSW6.4 kmh WSW
Wind Gusts 16.8 mph27.0 kmh 4.5 mph7.2 kmh 10.0 mph16.1 kmh
Humidity 99% 99% 99%
Pressure 30.32 in1026.8 mb 30.00 in1015.9 mb -
Precipitation 3.41 in86.6 mm - -
Hour Temp Dew Point Humidity Winds Wind Gusts Pressure Precip Precip Rate Daily Precip Total
12:00 AM 34.9°F1.6°C 34.6°F1.4°C 99% 1.2 mph W1.9 kmh W 5.4 mph8.7 kmh 30.32 in1026.8 mb 0.14 in3.6 mm 0.00 in0.0 mm 0.14 in3.6 mm
12:05 AM 34.7°F1.5°C 34.5°F1.4°C 99% 1.3 mph WSW2.1 kmh WSW 4.5 mph7.2 kmh 30.32 in1026.8 mb 0.14 in3.6 mm 0.00 in0.0 mm 0.14 in3.6 mm
12:10 AM 34.7°F1.5°C 34.5°F1.4°C 99% 1.7 mph WSW2.7 kmh WSW 5.4 mph8.7 kmh 30.32 in1026.8 mb 0.14 in3.6 mm 0.00 in0.0 mm 0.01 in0.3 mm
12:15 AM 34.5°F1.4°C 34.3°F1.3°C 99% 2.0 mph WSW3.2 kmh WSW 6.0 mph9.7 kmh 30.32 in1026.8 mb 0.14 in3.6 mm 0.00 in0.0 mm 0.01 in0.3 mm
12:20 AM 34.7°F1.5°C 34.5°F1.4°C 99% 2.8 mph WSW4.5 kmh WSW 8.3 mph13.4 kmh 30.32 in1026.8 mb 0.13 in3.3 mm 0.00 in0.0 mm 0.01 in0.3 mm
12:25 AM 34.7°F1.5°C 34.5°F1.4°C 99% 3.6 mph WSW5.8 kmh WSW 8.3 mph13.4 kmh 30.32 in1026.8 mb 0.14 in3.6 mm 0.12 in3.0 mm 0.02 in0.5 mm
12:30 AM 34.7°F1.5°C 34.5°F1.4°C 99% 3.4 mph WSW5.5 kmh WSW 8.3 mph13.4 kmh 30.32 in1026.8 mb 0.13 in3.3 mm 0.00 in0.0 mm 0.04 in1.0 mm
12:35 AM 34.7°F1.5°C 34.5°F1.4°C 99% 2.8 mph WSW4.5 kmh WSW 7.6 mph12.2 kmh 30.32 in1026.8 mb 0.12 in3.0 mm 0.00 in0.0 mm 0.05 in1.3 mm
12:40 AM 34.7°F1.5°C 34.5°F1.4°C 99% 2.9 mph WSW4.7 kmh WSW 6.9 mph11.1 kmh 30.31 in1026.4 mb 0.12 in3.0 mm 0.00 in0.0 mm 0.06 in1.5 mm
12:45 AM 34.7°F1.5°C 34.5°F1.4°C 99% 3.0 mph WSW4.8 kmh WSW 6.9 mph11.1 kmh 30.32 in1026.8 mb 0.11 in2.8 mm 0.00 in0.0 mm 0.07 in1.8 mm
12:50 AM 34.7°F1.5°C 34.5°F1.4°C 99% 2.4 mph WSW3.9 kmh WSW 6.9 mph11.1 kmh 30.31 in1026.4 mb 0.11 in2.8 mm 0.00 in0.0 mm 0.08 in2.0 mm
12:55 AM 34.7°F1.5°C 34.5°F1.4°C 99% 2.3 mph SW3.7 kmh SW 8.3 mph13.4 kmh 30.31 in1026.4 mb 0.11 in2.8 mm 0.00 in0.0 mm 0.09 in2.3 mm
01:00 AM 34.9°F1.6°C 34.6°F1.4°C 99% 2.5 mph WSW4.0 kmh WSW 8.3 mph13.4 kmh 30.31 in1026.4 mb 0.11 in2.8 mm 0.00 in0.0 mm 0.11 in2.8 mm
01:05 AM 34.9°F1.6°C 34.6°F1.4°C 99% 2.3 mph WSW3.7 kmh WSW 6.0 mph9.7 kmh 30.31 in1026.4 mb 0.13 in3.3 mm 0.24 in6.1 mm 0.13 in3.3 mm
01:10 AM 34.9°F1.6°C 34.6°F1.4°C 99% 1.7 mph WSW2.7 kmh WSW 5.4 mph8.7 kmh 30.30 in1026.1 mb 0.13 in3.3 mm 0.00 in0.0 mm 0.14 in3.6 mm
01:15 AM 34.9°F1.6°C 34.6°F1.4°C 99% 1.7 mph SW2.7 kmh SW 5.4 mph8.7 kmh 30.30 in1026.1 mb 0.14 in3.6 mm 0.12 in3.0 mm 0.15 in3.8 mm
01:20 AM 34.9°F1.6°C 34.6°F1.4°C 99% 1.7 mph SW2.7 kmh SW 5.4 mph8.7 kmh 30.30 in1026.1 mb 0.14 in3.6 mm 0.00 in0.0 mm 0.17 in4.3 mm
01:25 AM 34.7°F1.5°C 34.5°F1.4°C 99% 1.6 mph SW2.6 kmh SW 5.4 mph8.7 kmh 30.30 in1026.1 mb 0.15 in3.8 mm 0.12 in3.0 mm 0.18 in4.6 mm
01:30 AM 34.9°F1.6°C 34.6°F1.4°C 99% 1.9 mph SW3.1 kmh SW 5.4 mph8.7 kmh 30.30 in1026.1 mb 0.15 in3.8 mm 0.00 in0.0 mm 0.19 in4.8 mm
01:35 AM 34.9°F1.6°C 34.6°F1.4°C 99% 2.0 mph SW3.2 kmh SW 6.0 mph9.7 kmh 30.30 in1026.1 mb 0.17 in4.3 mm 0.24 in6.1 mm 0.21 in5.3 mm
01:40 AM 34.7°F1.5°C 34.5°F1.4°C 99% 1.9 mph WSW3.1 kmh WSW 6.0 mph9.7 kmh 30.30 in1026.1 mb 0.15 in3.8 mm 0.00 in0.0 mm 0.21 in5.3 mm
01:45 AM 34.9°F1.6°C 34.6°F1.4°C 99% 1.7 mph W2.7 kmh W 6.0 mph9.7 kmh 30.30 in1026.1 mb 0.17 in4.3 mm 0.24 in6.1 mm 0.24 in6.1 mm
01:50 AM 34.9°F1.6°C 34.6°F1.4°C 99% 1.7 mph WSW2.7 kmh WSW 5.4 mph8.7 kmh 30.30 in1026.1 mb 0.18 in4.6 mm 0.12 in3.0 mm 0.26 in6.6 mm
01:55 AM 34.7°F1.5°C 34.5°F1.4°C 99% 1.4 mph WSW2.3 kmh WSW 5.4 mph8.7 kmh 30.29 in1025.7 mb 0.19 in4.8 mm 0.12 in3.0 mm 0.28 in7.1 mm
02:00 AM 34.7°F1.5°C 34.5°F1.4°C 99% 1.4 mph WSW2.3 kmh WSW 6.0 mph9.7 kmh 30.29 in1025.7 mb 0.19 in4.8 mm 0.00 in0.0 mm 0.30 in7.6 mm
02:05 AM 34.7°F1.5°C 34.5°F1.4°C 99% 1.7 mph WSW2.7 kmh WSW 6.0 mph9.7 kmh 30.29 in1025.7 mb 0.19 in4.8 mm 0.00 in0.0 mm 0.32 in8.1 mm
02:10 AM 34.7°F1.5°C 34.5°F1.4°C 99% 1.6 mph SW2.6 kmh SW 6.0 mph9.7 kmh 30.28 in1025.4 mb 0.19 in4.8 mm 0.00 in0.0 mm 0.33 in8.4 mm
02:15 AM 34.7°F1.5°C 34.5°F1.4°C 99% 1.5 mph SW2.4 kmh SW 4.5 mph7.2 kmh 30.28 in1025.4 mb 0.19 in4.8 mm 0.00 in0.0 mm 0.34 in8.6 mm
02:20 AM 34.7°F1.5°C 34.5°F1.4°C 99% 1.9 mph WSW3.1 kmh WSW 5.4 mph8.7 kmh 30.28 in1025.4 mb 0.18 in4.6 mm 0.00 in0.0 mm 0.35 in8.9 mm
02:25 AM 34.7°F1.5°C 34.5°F1.4°C 99% 2.3 mph WSW3.7 kmh WSW 6.0 mph9.7 kmh 30.29 in1025.7 mb 0.19 in4.8 mm 0.12 in3.0 mm 0.37 in9.4 mm
02:30 AM 34.7°F1.5°C 34.5°F1.4°C 99% 2.0 mph SW3.2 kmh SW 6.0 mph9.7 kmh 30.29 in1025.7 mb 0.19 in4.8 mm 0.00 in0.0 mm 0.38 in9.7 mm
02:35 AM 34.7°F1.5°C 34.5°F1.4°C 99% 1.7 mph WSW2.7 kmh WSW 6.0 mph9.7 kmh 30.28 in1025.4 mb 0.19 in4.8 mm 0.00 in0.0 mm 0.40 in10.2 mm
02:40 AM 34.5°F1.4°C 34.3°F1.3°C 99% 2.0 mph W3.2 kmh W 6.0 mph9.7 kmh 30.28 in1025.4 mb 0.19 in4.8 mm 0.00 in0.0 mm 0.41 in10.4 mm
02:45 AM 34.5°F1.4°C 34.3°F1.3°C 99% 2.1 mph W3.4 kmh W 5.4 mph8.7 kmh 30.28 in1025.4 mb 0.19 in4.8 mm 0.00 in0.0 mm 0.44 in11.2 mm
02:50 AM 34.5°F1.4°C 34.3°F1.3°C 99% 2.3 mph WSW3.7 kmh WSW 9.2 mph14.8 kmh 30.28 in1025.4 mb 0.20 in5.1 mm 0.12 in3.0 mm 0.46 in11.7 mm
02:55 AM 34.5°F1.4°C 34.3°F1.3°C 99% 3.0 mph WSW4.8 kmh WSW 9.2 mph14.8 kmh 30.28 in1025.4 mb 0.19 in4.8 mm 0.00 in0.0 mm 0.47 in11.9 mm
03:00 AM 34.5°F1.4°C 34.3°F1.3°C 99% 3.0 mph WSW4.8 kmh WSW 9.2 mph14.8 kmh 30.27 in1025.1 mb 0.18 in4.6 mm 0.00 in0.0 mm 0.47 in11.9 mm
03:05 AM 34.5°F1.4°C 34.3°F1.3°C 99% 2.1 mph WSW3.4 kmh WSW 6.0 mph9.7 kmh 30.27 in1025.1 mb 0.17 in4.3 mm 0.00 in0.0 mm 0.48 in12.2 mm
03:10 AM 34.5°F1.4°C 34.3°F1.3°C 99% 2.1 mph WSW3.4 kmh WSW 6.9 mph11.1 kmh 30.27 in1025.1 mb 0.17 in4.3 mm 0.00 in0.0 mm 0.50 in12.7 mm
03:15 AM 34.5°F1.4°C 34.3°F1.3°C 99% 2.4 mph WSW3.9 kmh WSW 7.6 mph12.2 kmh 30.27 in1025.1 mb 0.17 in4.3 mm 0.00 in0.0 mm 0.51 in13.0 mm
03:20 AM 34.5°F1.4°C 34.3°F1.3°C 99% 2.5 mph WSW4.0 kmh WSW 7.6 mph12.2 kmh 30.26 in1024.7 mb 0.18 in4.6 mm 0.12 in3.0 mm 0.53 in13.5 mm
03:25 AM 34.5°F1.4°C 34.3°F1.3°C 99% 2.3 mph WSW3.7 kmh WSW 6.9 mph11.1 kmh 30.25 in1024.4 mb 0.20 in5.1 mm 0.24 in6.1 mm 0.57 in14.5 mm
03:30 AM 34.3°F1.3°C 34.1°F1.2°C 99% 1.9 mph WSW3.1 kmh WSW 6.0 mph9.7 kmh 30.26 in1024.7 mb 0.21 in5.3 mm 0.12 in3.0 mm 0.59 in15.0 mm
03:35 AM 34.3°F1.3°C 34.1°F1.2°C 99% 2.4 mph WSW3.9 kmh WSW 6.0 mph9.7 kmh 30.25 in1024.4 mb 0.20 in5.1 mm 0.00 in0.0 mm 0.60 in15.2 mm
03:40 AM 34.3°F1.3°C 34.1°F1.2°C 99% 2.7 mph WSW4.3 kmh WSW 6.0 mph9.7 kmh 30.25 in1024.4 mb 0.20 in5.1 mm 0.00 in0.0 mm 0.61 in15.5 mm
03:45 AM 34.3°F1.3°C 34.1°F1.2°C 99% 2.9 mph WSW4.7 kmh WSW 6.9 mph11.1 kmh 30.25 in1024.4 mb 0.18 in4.6 mm 0.00 in0.0 mm 0.61 in15.5 mm
03:50 AM 34.3°F1.3°C 34.1°F1.2°C 99% 3.7 mph WSW6.0 kmh WSW 8.3 mph13.4 kmh 30.25 in1024.4 mb 0.17 in4.3 mm 0.00 in0.0 mm 0.63 in16.0 mm
03:55 AM 34.5°F1.4°C 34.3°F1.3°C 99% 3.5 mph WSW5.6 kmh WSW 9.8 mph15.8 kmh 30.25 in1024.4 mb 0.15 in3.8 mm 0.00 in0.0 mm 0.63 in16.0 mm
04:00 AM 34.5°F1.4°C 34.3°F1.3°C 99% 3.3 mph WSW5.3 kmh WSW 9.8 mph15.8 kmh 30.25 in1024.4 mb 0.15 in3.8 mm 0.00 in0.0 mm 0.63 in16.0 mm
04:05 AM 34.7°F1.5°C 34.5°F1.4°C 99% 3.6 mph WSW5.8 kmh WSW 8.3 mph13.4 kmh 30.25 in1024.4 mb 0.15 in3.8 mm 0.00 in0.0 mm 0.64 in16.3 mm
04:10 AM 34.7°F1.5°C 34.5°F1.4°C 99% 3.6 mph WSW5.8 kmh WSW 8.3 mph13.4 kmh 30.25 in1024.4 mb 0.14 in3.6 mm 0.00 in0.0 mm 0.64 in16.3 mm
04:15 AM 34.7°F1.5°C 34.5°F1.4°C 99% 3.0 mph WSW4.8 kmh WSW 8.3 mph13.4 kmh 30.25 in1024.4 mb 0.14 in3.6 mm 0.00 in0.0 mm 0.65 in16.5 mm
04:20 AM 34.7°F1.5°C 34.5°F1.4°C 99% 2.9 mph WSW4.7 kmh WSW 9.2 mph14.8 kmh 30.24 in1024.0 mb 0.12 in3.0 mm 0.00 in0.0 mm 0.66 in16.8 mm
04:25 AM 34.7°F1.5°C 34.5°F1.4°C 99% 3.4 mph WSW5.5 kmh WSW 9.2 mph14.8 kmh 30.24 in1024.0 mb 0.09 in2.3 mm 0.00 in0.0 mm 0.67 in17.0 mm
04:30 AM 34.7°F1.5°C 34.5°F1.4°C 99% 3.6 mph WSW5.8 kmh WSW 8.3 mph13.4 kmh 30.24 in1024.0 mb 0.08 in2.0 mm 0.00 in0.0 mm 0.69 in17.5 mm
04:35 AM 34.7°F1.5°C 34.5°F1.4°C 99% 3.5 mph WSW5.6 kmh WSW 7.6 mph12.2 kmh 30.22 in1023.4 mb 0.08 in2.0 mm 0.00 in0.0 mm 0.69 in17.5 mm
04:40 AM 34.7°F1.5°C 34.5°F1.4°C 99% 3.4 mph WSW5.5 kmh WSW 8.3 mph13.4 kmh 30.22 in1023.4 mb 0.08 in2.0 mm 0.00 in0.0 mm 0.70 in17.8 mm
04:45 AM 34.7°F1.5°C 34.5°F1.4°C 99% 3.0 mph WSW4.8 kmh WSW 8.3 mph13.4 kmh 30.22 in1023.4 mb 0.09 in2.3 mm 0.12 in3.0 mm 0.71 in18.0 mm
04:50 AM 34.7°F1.5°C 34.5°F1.4°C 99% 2.5 mph WSW4.0 kmh WSW 7.6 mph12.2 kmh 30.22 in1023.4 mb 0.08 in2.0 mm 0.00 in0.0 mm 0.71 in18.0 mm
04:55 AM 34.7°F1.5°C 34.5°F1.4°C 99% 2.5 mph WSW4.0 kmh WSW 9.2 mph14.8 kmh 30.21 in1023.0 mb 0.09 in2.3 mm 0.12 in3.0 mm 0.72 in18.3 mm
05:00 AM 34.7°F1.5°C 34.5°F1.4°C 99% 2.4 mph WSW3.9 kmh WSW 9.2 mph14.8 kmh 30.22 in1023.4 mb 0.11 in2.8 mm 0.02 in0.5 mm 0.73 in18.5 mm
05:05 AM 34.7°F1.5°C 34.5°F1.4°C 99% 2.1 mph WSW3.4 kmh WSW 6.9 mph11.1 kmh 30.22 in1023.4 mb 0.11 in2.8 mm 0.00 in0.0 mm 0.74 in18.8 mm
05:10 AM 34.9°F1.6°C 34.6°F1.4°C 99% 1.9 mph W3.1 kmh W 6.9 mph11.1 kmh 30.21 in1023.0 mb 0.13 in3.3 mm 0.24 in6.1 mm 0.77 in19.6 mm
05:15 AM 34.7°F1.5°C 34.5°F1.4°C 99% 2.1 mph W3.4 kmh W 6.0 mph9.7 kmh 30.21 in1023.0 mb 0.14 in3.6 mm 0.12 in3.0 mm 0.79 in20.1 mm
05:20 AM 34.7°F1.5°C 34.5°F1.4°C 99% 2.3 mph WSW3.7 kmh WSW 5.4 mph8.7 kmh 30.21 in1023.0 mb 0.14 in3.6 mm 0.00 in0.0 mm 0.80 in20.3 mm
05:25 AM 34.9°F1.6°C 34.6°F1.4°C 99% 2.6 mph SW4.2 kmh SW 6.0 mph9.7 kmh 30.21 in1023.0 mb 0.14 in3.6 mm 0.00 in0.0 mm 0.81 in20.6 mm
05:30 AM 34.9°F1.6°C 34.6°F1.4°C 99% 2.9 mph SW4.7 kmh SW 6.9 mph11.1 kmh 30.21 in1023.0 mb 0.13 in3.3 mm 0.00 in0.0 mm 0.81 in20.6 mm
05:35 AM 34.9°F1.6°C 34.6°F1.4°C 99% 2.5 mph WSW4.0 kmh WSW 6.9 mph11.1 kmh 30.21 in1023.0 mb 0.13 in3.3 mm 0.00 in0.0 mm 0.83 in21.1 mm
05:40 AM 34.9°F1.6°C 34.6°F1.4°C 99% 2.2 mph WSW3.5 kmh WSW 5.4 mph8.7 kmh 30.21 in1023.0 mb 0.13 in3.3 mm 0.00 in0.0 mm 0.83 in21.1 mm
05:45 AM 35.1°F1.7°C 34.8°F1.6°C 99% 2.3 mph WSW3.7 kmh WSW 4.5 mph7.2 kmh 30.21 in1023.0 mb 0.13 in3.3 mm 0.00 in0.0 mm 0.84 in21.3 mm
05:50 AM 35.1°F1.7°C 34.8°F1.6°C 99% 2.3 mph WSW3.7 kmh WSW 6.9 mph11.1 kmh 30.20 in1022.7 mb 0.14 in3.6 mm 0.12 in3.0 mm 0.85 in21.6 mm
05:55 AM 35.1°F1.7°C 34.8°F1.6°C 99% 2.9 mph WSW4.7 kmh WSW 6.9 mph11.1 kmh 30.20 in1022.7 mb 0.14 in3.6 mm 0.00 in0.0 mm 0.86 in21.8 mm
06:00 AM 35.1°F1.7°C 34.8°F1.6°C 99% 2.8 mph WSW4.5 kmh WSW 6.9 mph11.1 kmh 30.19 in1022.4 mb 0.14 in3.6 mm 0.00 in0.0 mm 0.87 in22.1 mm
06:05 AM 35.1°F1.7°C 34.8°F1.6°C 99% 2.6 mph WSW4.2 kmh WSW 6.0 mph9.7 kmh 30.19 in1022.4 mb 0.14 in3.6 mm 0.00 in0.0 mm 0.89 in22.6 mm
06:10 AM 35.1°F1.7°C 34.8°F1.6°C 99% 2.6 mph WSW4.2 kmh WSW 6.0 mph9.7 kmh 30.19 in1022.4 mb 0.13 in3.3 mm 0.00 in0.0 mm 0.90 in22.9 mm
06:15 AM 35.1°F1.7°C 34.8°F1.6°C 99% 2.8 mph WSW4.5 kmh WSW 7.6 mph12.2 kmh 30.19 in1022.4 mb 0.13 in3.3 mm 0.00 in0.0 mm 0.92 in23.4 mm
06:20 AM 35.1°F1.7°C 34.8°F1.6°C 99% 2.8 mph W4.5 kmh W 7.6 mph12.2 kmh 30.19 in1022.4 mb 0.12 in3.0 mm 0.00 in0.0 mm 0.92 in23.4 mm
06:25 AM 35.1°F1.7°C 34.8°F1.6°C 99% 2.4 mph WSW3.9 kmh WSW 6.9 mph11.1 kmh 30.19 in1022.4 mb 0.12 in3.0 mm 0.00 in0.0 mm 0.93 in23.6 mm
06:30 AM 35.1°F1.7°C 34.8°F1.6°C 99% 2.6 mph WSW4.2 kmh WSW 6.9 mph11.1 kmh 30.20 in1022.7 mb 0.12 in3.0 mm 0.00 in0.0 mm 0.93 in23.6 mm
06:35 AM 35.1°F1.7°C 34.8°F1.6°C 99% 2.9 mph WSW4.7 kmh WSW 6.9 mph11.1 kmh 30.19 in1022.4 mb 0.12 in3.0 mm 0.00 in0.0 mm 0.94 in23.9 mm
06:40 AM 35.1°F1.7°C 34.8°F1.6°C 99% 3.3 mph WSW5.3 kmh WSW 7.6 mph12.2 kmh 30.19 in1022.4 mb 0.12 in3.0 mm 0.00 in0.0 mm 0.94 in23.9 mm
06:45 AM 35.1°F1.7°C 34.8°F1.6°C 99% 3.3 mph SW5.3 kmh SW 7.6 mph12.2 kmh 30.19 in1022.4 mb 0.12 in3.0 mm 0.00 in0.0 mm 0.96 in24.4 mm
06:50 AM 35.1°F1.7°C 34.8°F1.6°C 99% 3.2 mph SW5.1 kmh SW 6.9 mph11.1 kmh 30.19 in1022.4 mb 0.11 in2.8 mm 0.00 in0.0 mm 0.96 in24.4 mm
06:55 AM 35.2°F1.8°C 35.0°F1.7°C 99% 3.0 mph WSW4.8 kmh WSW 6.9 mph11.1 kmh 30.19 in1022.4 mb 0.09 in2.3 mm 0.00 in0.0 mm 0.96 in24.4 mm
07:00 AM 35.2°F1.8°C 35.0°F1.7°C 99% 2.0 mph WSW3.2 kmh WSW 6.0 mph9.7 kmh 30.19 in1022.4 mb 0.08 in2.0 mm 0.00 in0.0 mm 0.96 in24.4 mm
07:05 AM 35.2°F1.8°C 35.0°F1.7°C 99% 1.5 mph WSW2.4 kmh WSW 6.0 mph9.7 kmh 30.19 in1022.4 mb 0.07 in1.8 mm 0.00 in0.0 mm 0.96 in24.4 mm
07:10 AM 35.2°F1.8°C 35.0°F1.7°C 99% 1.8 mph W2.9 kmh W 6.0 mph9.7 kmh 30.18 in1022.0 mb 0.06 in1.5 mm 0.00 in0.0 mm 0.96 in24.4 mm
07:15 AM 35.4°F1.9°C 35.2°F1.8°C 99% 1.8 mph WSW2.9 kmh WSW 5.4 mph8.7 kmh 30.18 in1022.0 mb 0.04 in1.0 mm 0.00 in0.0 mm 0.96 in24.4 mm
07:20 AM 35.2°F1.8°C 35.0°F1.7°C 99% 1.9 mph WSW3.1 kmh WSW 5.4 mph8.7 kmh 30.18 in1022.0 mb 0.04 in1.0 mm 0.00 in0.0 mm 0.96 in24.4 mm
07:25 AM 35.2°F1.8°C 35.0°F1.7°C 99% 2.1 mph WSW3.4 kmh WSW 5.4 mph8.7 kmh 30.18 in1022.0 mb 0.04 in1.0 mm 0.00 in0.0 mm 0.97 in24.6 mm
07:30 AM 35.2°F1.8°C 35.0°F1.7°C 99% 2.1 mph WSW3.4 kmh WSW 5.4 mph8.7 kmh 30.18 in1022.0 mb 0.02 in0.5 mm 0.00 in0.0 mm 0.97 in24.6 mm
07:35 AM 35.2°F1.8°C 35.0°F1.7°C 99% 2.2 mph WSW3.5 kmh WSW 6.9 mph11.1 kmh 30.18 in1022.0 mb 0.02 in0.5 mm 0.00 in0.0 mm 0.97 in24.6 mm
07:40 AM 35.2°F1.8°C 35.0°F1.7°C 99% 2.6 mph WSW4.2 kmh WSW 6.9 mph11.1 kmh 30.18 in1022.0 mb 0.02 in0.5 mm 0.00 in0.0 mm 0.97 in24.6 mm
07:45 AM 35.2°F1.8°C 35.0°F1.7°C 99% 2.5 mph WSW4.0 kmh WSW 6.9 mph11.1 kmh 30.17 in1021.7 mb 0.01 in0.3 mm 0.00 in0.0 mm 0.97 in24.6 mm
07:50 AM 35.2°F1.8°C 35.0°F1.7°C 99% 2.2 mph W3.5 kmh W 5.4 mph8.7 kmh 30.18 in1022.0 mb 0.01 in0.3 mm 0.00 in0.0 mm 0.97 in24.6 mm
07:55 AM 35.2°F1.8°C 35.0°F1.7°C 99% 2.3 mph WSW3.7 kmh WSW 5.4 mph8.7 kmh 30.18 in1022.0 mb 0.01 in0.3 mm 0.00 in0.0 mm 0.97 in24.6 mm
08:00 AM 35.4°F1.9°C 35.2°F1.8°C 99% 2.1 mph WSW3.4 kmh WSW 6.0 mph9.7 kmh 30.17 in1021.7 mb 0.01 in0.3 mm 0.00 in0.0 mm 0.97 in24.6 mm
08:05 AM 35.4°F1.9°C 35.2°F1.8°C 99% 2.0 mph WSW3.2 kmh WSW 6.0 mph9.7 kmh 30.18 in1022.0 mb 0.01 in0.3 mm 0.00 in0.0 mm 0.97 in24.6 mm
08:10 AM 35.4°F1.9°C 35.2°F1.8°C 99% 2.4 mph W3.9 kmh W 6.9 mph11.1 kmh 30.17 in1021.7 mb 0.01 in0.3 mm 0.00 in0.0 mm 0.97 in24.6 mm
08:15 AM 35.4°F1.9°C 35.2°F1.8°C 99% 2.5 mph W4.0 kmh W 6.9 mph11.1 kmh 30.17 in1021.7 mb 0.01 in0.3 mm 0.00 in0.0 mm 0.97 in24.6 mm
08:20 AM 35.4°F1.9°C 35.2°F1.8°C 99% 2.4 mph W3.9 kmh W 6.9 mph11.1 kmh 30.18 in1022.0 mb 0.01 in0.3 mm 0.00 in0.0 mm 0.97 in24.6 mm
08:25 AM 35.2°F1.8°C 35.0°F1.7°C 99% 2.7 mph WSW4.3 kmh WSW 6.9 mph11.1 kmh 30.18 in1022.0 mb 0.00 in0.0 mm 0.00 in0.0 mm 0.97 in24.6 mm
08:30 AM 35.2°F1.8°C 35.0°F1.7°C 99% 2.7 mph WSW4.3 kmh WSW 6.9 mph11.1 kmh 30.17 in1021.7 mb 0.00 in0.0 mm 0.00 in0.0 mm 0.97 in24.6 mm
08:35 AM 35.2°F1.8°C 35.0°F1.7°C 99% 2.0 mph W3.2 kmh W 6.9 mph11.1 kmh 30.18 in1022.0 mb 0.01 in0.3 mm 0.12 in3.0 mm 0.98 in24.9 mm
08:40 AM 35.1°F1.7°C 34.8°F1.6°C 99% 2.0 mph W3.2 kmh W 6.0 mph9.7 kmh 30.17 in1021.7 mb 0.02 in0.5 mm 0.12 in3.0 mm 0.99 in25.1 mm
08:45 AM 35.1°F1.7°C 34.8°F1.6°C 99% 3.3 mph WSW5.3 kmh WSW 9.2 mph14.8 kmh 30.19 in1022.4 mb 0.04 in1.0 mm 0.24 in6.1 mm 1.00 in25.4 mm
08:50 AM 35.1°F1.7°C 34.8°F1.6°C 99% 4.3 mph W6.9 kmh W 12.1 mph19.5 kmh 30.19 in1022.4 mb 0.07 in1.8 mm 0.36 in9.1 mm 1.04 in26.4 mm
08:55 AM 35.1°F1.7°C 34.8°F1.6°C 99% 4.4 mph W7.1 kmh W 12.1 mph19.5 kmh 30.19 in1022.4 mb 0.08 in2.0 mm 0.12 in3.0 mm 1.05 in26.7 mm
09:00 AM 35.1°F1.7°C 34.8°F1.6°C 99% 4.3 mph WSW6.9 kmh WSW 11.4 mph18.3 kmh 30.18 in1022.0 mb 0.09 in2.3 mm 0.01 in0.3 mm 1.06 in26.9 mm
09:05 AM 35.1°F1.7°C 34.8°F1.6°C 99% 4.2 mph W6.8 kmh W 10.7 mph17.2 kmh 30.19 in1022.4 mb 0.11 in2.8 mm 0.24 in6.1 mm 1.07 in27.2 mm
09:10 AM 35.4°F1.9°C 35.2°F1.8°C 99% 3.4 mph WNW5.5 kmh WNW 9.2 mph14.8 kmh 30.18 in1022.0 mb 0.13 in3.3 mm 0.24 in6.1 mm 1.10 in27.9 mm
09:15 AM 35.8°F2.1°C 35.5°F1.9°C 99% 3.3 mph NW5.3 kmh NW 9.2 mph14.8 kmh 30.18 in1022.0 mb 0.15 in3.8 mm 0.24 in6.1 mm 1.12 in28.4 mm
09:20 AM 36.3°F2.4°C 36.1°F2.3°C 99% 4.1 mph NW6.6 kmh NW 9.8 mph15.8 kmh 30.18 in1022.0 mb 0.18 in4.6 mm 0.36 in9.1 mm 1.15 in29.2 mm
09:25 AM 36.5°F2.5°C 36.2°F2.3°C 99% 4.2 mph WNW6.8 kmh WNW 9.8 mph15.8 kmh 30.18 in1022.0 mb 0.19 in4.8 mm 0.12 in3.0 mm 1.16 in29.5 mm
09:30 AM 36.5°F2.5°C 36.2°F2.3°C 99% 4.6 mph W7.4 kmh W 11.4 mph18.3 kmh 30.20 in1022.7 mb 0.19 in4.8 mm 0.00 in0.0 mm 1.17 in29.7 mm
09:35 AM 36.5°F2.5°C 36.2°F2.3°C 99% 4.4 mph W7.1 kmh W 11.4 mph18.3 kmh 30.20 in1022.7 mb 0.20 in5.1 mm 0.12 in3.0 mm 1.18 in30.0 mm
09:40 AM 36.0°F2.2°C 35.7°F2.1°C 99% 3.6 mph W5.8 kmh W 8.3 mph13.4 kmh 30.20 in1022.7 mb 0.20 in5.1 mm 0.00 in0.0 mm 1.19 in30.2 mm
09:45 AM 35.4°F1.9°C 35.2°F1.8°C 99% 4.8 mph W7.7 kmh W 11.4 mph18.3 kmh 30.20 in1022.7 mb 0.19 in4.8 mm 0.00 in0.0 mm 1.20 in30.5 mm
09:50 AM 35.2°F1.8°C 35.0°F1.7°C 99% 5.6 mph W9.0 kmh W 11.4 mph18.3 kmh 30.20 in1022.7 mb 0.18 in4.6 mm 0.00 in0.0 mm 1.22 in31.0 mm
09:55 AM 35.1°F1.7°C 34.8°F1.6°C 99% 5.1 mph W8.2 kmh W 11.4 mph18.3 kmh 30.20 in1022.7 mb 0.19 in4.8 mm 0.12 in3.0 mm 1.24 in31.5 mm
10:00 AM 35.1°F1.7°C 34.8°F1.6°C 99% 4.9 mph W7.9 kmh W 11.4 mph18.3 kmh 30.20 in1022.7 mb 0.20 in5.1 mm 0.01 in0.3 mm 1.26 in32.0 mm
10:05 AM 35.1°F1.7°C 34.8°F1.6°C 99% 4.6 mph W7.4 kmh W 9.8 mph15.8 kmh 30.20 in1022.7 mb 0.20 in5.1 mm 0.00 in0.0 mm 1.29 in32.8 mm
10:10 AM 34.9°F1.6°C 34.6°F1.4°C 99% 4.1 mph W6.6 kmh W 9.8 mph15.8 kmh 30.19 in1022.4 mb 0.19 in4.8 mm 0.00 in0.0 mm 1.29 in32.8 mm
10:15 AM 35.2°F1.8°C 35.0°F1.7°C 99% 3.7 mph W6.0 kmh W 9.8 mph15.8 kmh 30.20 in1022.7 mb 0.18 in4.6 mm 0.00 in0.0 mm 1.31 in33.3 mm
10:20 AM 35.4°F1.9°C 35.2°F1.8°C 99% 3.9 mph W6.3 kmh W 10.7 mph17.2 kmh 30.20 in1022.7 mb 0.18 in4.6 mm 0.00 in0.0 mm 1.32 in33.5 mm
10:25 AM 35.6°F2.0°C 35.4°F1.9°C 99% 3.9 mph WNW6.3 kmh WNW 10.7 mph17.2 kmh 30.18 in1022.0 mb 0.18 in4.6 mm 0.00 in0.0 mm 1.33 in33.8 mm
10:30 AM 35.8°F2.1°C 35.5°F1.9°C 99% 3.7 mph WNW6.0 kmh WNW 10.7 mph17.2 kmh 30.19 in1022.4 mb 0.20 in5.1 mm 0.24 in6.1 mm 1.37 in34.8 mm
10:35 AM 35.8°F2.1°C 35.5°F1.9°C 99% 3.7 mph W6.0 kmh W 9.8 mph15.8 kmh 30.18 in1022.0 mb 0.21 in5.3 mm 0.12 in3.0 mm 1.39 in35.3 mm
10:40 AM 35.8°F2.1°C 35.5°F1.9°C 99% 3.9 mph W6.3 kmh W 8.3 mph13.4 kmh 30.19 in1022.4 mb 0.21 in5.3 mm 0.00 in0.0 mm 1.41 in35.8 mm
10:45 AM 35.6°F2.0°C 35.4°F1.9°C 99% 4.3 mph W6.9 kmh W 9.8 mph15.8 kmh 30.19 in1022.4 mb 0.22 in5.6 mm 0.12 in3.0 mm 1.43 in36.3 mm
10:50 AM 35.4°F1.9°C 35.2°F1.8°C 99% 4.4 mph W7.1 kmh W 9.8 mph15.8 kmh 30.18 in1022.0 mb 0.22 in5.6 mm 0.00 in0.0 mm 1.45 in36.8 mm
10:55 AM 35.4°F1.9°C 35.2°F1.8°C 99% 4.0 mph W6.4 kmh W 9.8 mph15.8 kmh 30.16 in1021.3 mb 0.21 in5.3 mm 0.00 in0.0 mm 1.46 in37.1 mm
11:00 AM 35.6°F2.0°C 35.4°F1.9°C 99% 4.0 mph NW6.4 kmh NW 8.3 mph13.4 kmh 30.14 in1020.7 mb 0.24 in6.1 mm 0.03 in0.8 mm 1.50 in38.1 mm
11:05 AM 35.6°F2.0°C 35.4°F1.9°C 99% 5.2 mph WNW8.4 kmh WNW 13.0 mph20.9 kmh 30.15 in1021.0 mb 0.24 in6.1 mm 0.00 in0.0 mm 1.52 in38.6 mm
11:10 AM 35.6°F2.0°C 35.4°F1.9°C 99% 5.4 mph W8.7 kmh W 13.0 mph20.9 kmh 30.15 in1021.0 mb 0.25 in6.4 mm 0.12 in3.0 mm 1.54 in39.1 mm
11:15 AM 35.4°F1.9°C 35.2°F1.8°C 99% 4.6 mph WSW7.4 kmh WSW 9.2 mph14.8 kmh 30.15 in1021.0 mb 0.25 in6.4 mm 0.00 in0.0 mm 1.56 in39.6 mm
11:20 AM 35.2°F1.8°C 35.0°F1.7°C 99% 4.5 mph WSW7.2 kmh WSW 9.2 mph14.8 kmh 30.15 in1021.0 mb 0.25 in6.4 mm 0.00 in0.0 mm 1.57 in39.9 mm
11:25 AM 35.2°F1.8°C 35.0°F1.7°C 99% 4.2 mph W6.8 kmh W 8.3 mph13.4 kmh 30.15 in1021.0 mb 0.25 in6.4 mm 0.00 in0.0 mm 1.58 in40.1 mm
11:30 AM 35.2°F1.8°C 35.0°F1.7°C 99% 4.2 mph WSW6.8 kmh WSW 9.8 mph15.8 kmh 30.15 in1021.0 mb 0.22 in5.6 mm 0.00 in0.0 mm 1.59 in40.4 mm
11:35 AM 35.6°F2.0°C 35.4°F1.9°C 99% 4.8 mph WSW7.7 kmh WSW 9.8 mph15.8 kmh 30.15 in1021.0 mb 0.22 in5.6 mm 0.00 in0.0 mm 1.62 in41.1 mm
11:40 AM 35.6°F2.0°C 35.4°F1.9°C 99% 4.8 mph W7.7 kmh W 9.8 mph15.8 kmh 30.14 in1020.7 mb 0.21 in5.3 mm 0.00 in0.0 mm 1.63 in41.4 mm
11:45 AM 36.0°F2.2°C 35.7°F2.1°C 99% 4.6 mph W7.4 kmh W 9.2 mph14.8 kmh 30.14 in1020.7 mb 0.22 in5.6 mm 0.12 in3.0 mm 1.65 in41.9 mm
11:50 AM 35.8°F2.1°C 35.5°F1.9°C 99% 4.3 mph W6.9 kmh W 9.2 mph14.8 kmh 30.13 in1020.3 mb 0.20 in5.1 mm 0.00 in0.0 mm 1.65 in41.9 mm
11:55 AM 35.8°F2.1°C 35.5°F1.9°C 99% 3.6 mph W5.8 kmh W 9.2 mph14.8 kmh 30.13 in1020.3 mb 0.18 in4.6 mm 0.00 in0.0 mm 1.65 in41.9 mm
12:00 PM 35.8°F2.1°C 35.5°F1.9°C 99% 3.5 mph W5.6 kmh W 9.2 mph14.8 kmh 30.13 in1020.3 mb 0.15 in3.8 mm 0.00 in0.0 mm 1.67 in42.4 mm
12:05 PM 36.0°F2.2°C 35.7°F2.1°C 99% 3.9 mph W6.3 kmh W 9.2 mph14.8 kmh 30.13 in1020.3 mb 0.14 in3.6 mm 0.00 in0.0 mm 1.67 in42.4 mm
12:10 PM 36.0°F2.2°C 35.7°F2.1°C 99% 3.8 mph W6.1 kmh W 9.2 mph14.8 kmh 30.12 in1020.0 mb 0.13 in3.3 mm 0.00 in0.0 mm 1.67 in42.4 mm
12:15 PM 36.0°F2.2°C 35.7°F2.1°C 99% 3.3 mph W5.3 kmh W 8.3 mph13.4 kmh 30.11 in1019.6 mb 0.12 in3.0 mm 0.00 in0.0 mm 1.68 in42.7 mm
12:20 PM 35.8°F2.1°C 35.5°F1.9°C 99% 2.7 mph WSW4.3 kmh WSW 8.3 mph13.4 kmh 30.11 in1019.6 mb 0.11 in2.8 mm 0.00 in0.0 mm 1.68 in42.7 mm
12:25 PM 35.8°F2.1°C 35.5°F1.9°C 99% 2.6 mph WSW4.2 kmh WSW 7.6 mph12.2 kmh 30.11 in1019.6 mb 0.09 in2.3 mm 0.00 in0.0 mm 1.68 in42.7 mm
12:30 PM 35.6°F2.0°C 35.4°F1.9°C 99% 2.5 mph WSW4.0 kmh WSW 7.6 mph12.2 kmh 30.11 in1019.6 mb 0.08 in2.0 mm 0.00 in0.0 mm 1.69 in42.9 mm
12:35 PM 35.6°F2.0°C 35.4°F1.9°C 99% 2.4 mph WSW3.9 kmh WSW 6.0 mph9.7 kmh 30.11 in1019.6 mb 0.08 in2.0 mm 0.00 in0.0 mm 1.70 in43.2 mm
12:40 PM 35.6°F2.0°C 35.4°F1.9°C 99% 3.0 mph SW4.8 kmh SW 6.9 mph11.1 kmh 30.11 in1019.6 mb 0.08 in2.0 mm 0.00 in0.0 mm 1.71 in43.4 mm
12:45 PM 35.2°F1.8°C 35.0°F1.7°C 99% 3.6 mph WSW5.8 kmh WSW 8.3 mph13.4 kmh 30.10 in1019.3 mb 0.09 in2.3 mm 0.12 in3.0 mm 1.75 in44.5 mm
12:50 PM 35.1°F1.7°C 34.8°F1.6°C 99% 3.9 mph W6.3 kmh W 9.2 mph14.8 kmh 30.09 in1019.0 mb 0.12 in3.0 mm 0.36 in9.1 mm 1.77 in45.0 mm
12:55 PM 35.1°F1.7°C 34.8°F1.6°C 99% 3.5 mph WSW5.6 kmh WSW 9.2 mph14.8 kmh 30.08 in1018.6 mb 0.12 in3.0 mm 0.00 in0.0 mm 1.77 in45.0 mm
01:00 PM 35.2°F1.8°C 35.0°F1.7°C 99% 3.1 mph WSW5.0 kmh WSW 8.3 mph13.4 kmh 30.09 in1019.0 mb 0.13 in3.3 mm 0.01 in0.3 mm 1.80 in45.7 mm
01:05 PM 35.2°F1.8°C 35.0°F1.7°C 99% 3.1 mph WSW5.0 kmh WSW 7.6 mph12.2 kmh 30.09 in1019.0 mb 0.15 in3.8 mm 0.24 in6.1 mm 1.82 in46.2 mm
01:10 PM 35.4°F1.9°C 35.2°F1.8°C 99% 3.2 mph WSW5.1 kmh WSW 8.3 mph13.4 kmh 30.08 in1018.6 mb 0.18 in4.6 mm 0.36 in9.1 mm 1.84 in46.7 mm
01:15 PM 35.4°F1.9°C 35.2°F1.8°C 99% 3.1 mph WSW5.0 kmh WSW 8.3 mph13.4 kmh 30.08 in1018.6 mb 0.18 in4.6 mm 0.00 in0.0 mm 1.85 in47.0 mm
01:20 PM 35.6°F2.0°C 35.4°F1.9°C 99% 2.8 mph SW4.5 kmh SW 9.8 mph15.8 kmh 30.09 in1019.0 mb 0.19 in4.8 mm 0.12 in3.0 mm 1.87 in47.5 mm
01:25 PM 36.0°F2.2°C 35.7°F2.1°C 99% 3.7 mph WSW6.0 kmh WSW 9.8 mph15.8 kmh 30.08 in1018.6 mb 0.20 in5.1 mm 0.12 in3.0 mm 1.88 in47.8 mm
01:30 PM 36.3°F2.4°C 36.1°F2.3°C 99% 3.9 mph WSW6.3 kmh WSW 9.8 mph15.8 kmh 30.08 in1018.6 mb 0.21 in5.3 mm 0.12 in3.0 mm 1.90 in48.3 mm
01:35 PM 36.1°F2.3°C 35.9°F2.2°C 99% 2.6 mph WSW4.2 kmh WSW 8.3 mph13.4 kmh 30.07 in1018.3 mb 0.22 in5.6 mm 0.12 in3.0 mm 1.93 in49.0 mm
01:40 PM 36.5°F2.5°C 36.2°F2.3°C 99% 2.8 mph W4.5 kmh W 8.3 mph13.4 kmh 30.08 in1018.6 mb 0.22 in5.6 mm 0.00 in0.0 mm 1.95 in49.5 mm
01:45 PM 36.3°F2.4°C 36.1°F2.3°C 99% 3.6 mph W5.8 kmh W 8.3 mph13.4 kmh 30.08 in1018.6 mb 0.21 in5.3 mm 0.00 in0.0 mm 1.96 in49.8 mm
01:50 PM 36.0°F2.2°C 35.7°F2.1°C 99% 4.2 mph WSW6.8 kmh WSW 9.8 mph15.8 kmh 30.09 in1019.0 mb 0.20 in5.1 mm 0.00 in0.0 mm 1.97 in50.0 mm
01:55 PM 35.8°F2.1°C 35.5°F1.9°C 99% 4.5 mph WSW7.2 kmh WSW 9.8 mph15.8 kmh 30.07 in1018.3 mb 0.20 in5.1 mm 0.00 in0.0 mm 1.97 in50.0 mm
02:00 PM 35.8°F2.1°C 35.5°F1.9°C 99% 4.9 mph WSW7.9 kmh WSW 10.7 mph17.2 kmh 30.06 in1017.9 mb 0.20 in5.1 mm 0.00 in0.0 mm 2.00 in50.8 mm
02:05 PM 36.0°F2.2°C 35.7°F2.1°C 99% 3.9 mph WSW6.3 kmh WSW 10.7 mph17.2 kmh 30.06 in1017.9 mb 0.20 in5.1 mm 0.00 in0.0 mm 2.02 in51.3 mm
02:10 PM 35.8°F2.1°C 35.5°F1.9°C 99% 2.6 mph WSW4.2 kmh WSW 8.3 mph13.4 kmh 30.05 in1017.6 mb 0.19 in4.8 mm 0.00 in0.0 mm 2.03 in51.6 mm
02:15 PM 36.1°F2.3°C 35.9°F2.2°C 99% 3.5 mph W5.6 kmh W 8.3 mph13.4 kmh 30.05 in1017.6 mb 0.18 in4.6 mm 0.00 in0.0 mm 2.03 in51.6 mm
02:20 PM 36.5°F2.5°C 36.2°F2.3°C 99% 4.0 mph W6.4 kmh W 9.2 mph14.8 kmh 30.05 in1017.6 mb 0.18 in4.6 mm 0.00 in0.0 mm 2.04 in51.8 mm
02:25 PM 36.7°F2.6°C 36.4°F2.4°C 99% 4.9 mph WNW7.9 kmh WNW 13.0 mph20.9 kmh 30.05 in1017.6 mb 0.18 in4.6 mm 0.00 in0.0 mm 2.06 in52.3 mm
02:30 PM 36.7°F2.6°C 36.4°F2.4°C 99% 6.1 mph WNW9.8 kmh WNW 15.9 mph25.6 kmh 30.05 in1017.6 mb 0.17 in4.3 mm 0.00 in0.0 mm 2.07 in52.6 mm
02:35 PM 36.5°F2.5°C 36.2°F2.3°C 99% 5.9 mph WNW9.5 kmh WNW 15.9 mph25.6 kmh 30.05 in1017.6 mb 0.15 in3.8 mm 0.00 in0.0 mm 2.08 in52.8 mm
02:40 PM 36.3°F2.4°C 36.1°F2.3°C 99% 5.5 mph W8.9 kmh W 12.1 mph19.5 kmh 30.04 in1017.3 mb 0.14 in3.6 mm 0.00 in0.0 mm 2.09 in53.1 mm
02:45 PM 36.5°F2.5°C 36.2°F2.3°C 99% 5.2 mph W8.4 kmh W 12.1 mph19.5 kmh 30.04 in1017.3 mb 0.15 in3.8 mm 0.12 in3.0 mm 2.11 in53.6 mm
02:50 PM 36.7°F2.6°C 36.4°F2.4°C 99% 4.9 mph W7.9 kmh W 11.4 mph18.3 kmh 30.04 in1017.3 mb 0.15 in3.8 mm 0.00 in0.0 mm 2.13 in54.1 mm
02:55 PM 36.7°F2.6°C 36.4°F2.4°C 99% 4.6 mph W7.4 kmh W 11.4 mph18.3 kmh 30.04 in1017.3 mb 0.18 in4.6 mm 0.36 in9.1 mm 2.15 in54.6 mm
03:00 PM 36.9°F2.7°C 36.6°F2.6°C 99% 4.6 mph W7.4 kmh W 11.4 mph18.3 kmh 30.04 in1017.3 mb 0.17 in4.3 mm 0.00 in0.0 mm 2.17 in55.1 mm
03:05 PM 36.9°F2.7°C 36.6°F2.6°C 99% 4.3 mph WSW6.9 kmh WSW 11.4 mph18.3 kmh 30.05 in1017.6 mb 0.17 in4.3 mm 0.00 in0.0 mm 2.19 in55.6 mm
03:10 PM 37.0°F2.8°C 36.8°F2.7°C 99% 3.6 mph WSW5.8 kmh WSW 10.7 mph17.2 kmh 30.07 in1018.3 mb 0.17 in4.3 mm 0.00 in0.0 mm 2.20 in55.9 mm
03:15 PM 36.9°F2.7°C 36.6°F2.6°C 99% 4.7 mph WSW7.6 kmh WSW 12.1 mph19.5 kmh 30.06 in1017.9 mb 0.18 in4.6 mm 0.12 in3.0 mm 2.22 in56.4 mm
03:20 PM 36.7°F2.6°C 36.4°F2.4°C 99% 5.7 mph W9.2 kmh W 12.1 mph19.5 kmh 30.06 in1017.9 mb 0.19 in4.8 mm 0.12 in3.0 mm 2.23 in56.6 mm
03:25 PM 36.5°F2.5°C 36.2°F2.3°C 99% 5.5 mph W8.9 kmh W 13.0 mph20.9 kmh 30.06 in1017.9 mb 0.20 in5.1 mm 0.12 in3.0 mm 2.26 in57.4 mm
03:30 PM 36.5°F2.5°C 36.2°F2.3°C 99% 5.1 mph W8.2 kmh W 13.6 mph21.9 kmh 30.06 in1017.9 mb 0.21 in5.3 mm 0.12 in3.0 mm 2.28 in57.9 mm
03:35 PM 36.5°F2.5°C 36.2°F2.3°C 99% 5.1 mph WNW8.2 kmh WNW 13.6 mph21.9 kmh 30.06 in1017.9 mb 0.21 in5.3 mm 0.00 in0.0 mm 2.29 in58.2 mm
03:40 PM 36.0°F2.2°C 35.7°F2.1°C 99% 5.8 mph W9.3 kmh W 13.0 mph20.9 kmh 30.06 in1017.9 mb 0.21 in5.3 mm 0.00 in0.0 mm 2.30 in58.4 mm
03:45 PM 35.6°F2.0°C 35.4°F1.9°C 99% 6.6 mph W10.6 kmh W 15.2 mph24.5 kmh 30.07 in1018.3 mb 0.20 in5.1 mm 0.00 in0.0 mm 2.31 in58.7 mm
03:50 PM 35.6°F2.0°C 35.4°F1.9°C 99% 6.2 mph W10.0 kmh W 15.2 mph24.5 kmh 30.07 in1018.3 mb 0.20 in5.1 mm 0.00 in0.0 mm 2.33 in59.2 mm
03:55 PM 35.4°F1.9°C 35.2°F1.8°C 99% 5.3 mph W8.5 kmh W 15.2 mph24.5 kmh 30.06 in1017.9 mb 0.18 in4.6 mm 0.00 in0.0 mm 2.34 in59.4 mm
04:00 PM 35.4°F1.9°C 35.2°F1.8°C 99% 5.4 mph WNW8.7 kmh WNW 13.6 mph21.9 kmh 30.06 in1017.9 mb 0.18 in4.6 mm 0.00 in0.0 mm 2.35 in59.7 mm
04:05 PM 35.4°F1.9°C 35.2°F1.8°C 99% 6.0 mph W9.7 kmh W 13.6 mph21.9 kmh 30.07 in1018.3 mb 0.17 in4.3 mm 0.00 in0.0 mm 2.35 in59.7 mm
04:10 PM 35.4°F1.9°C 35.2°F1.8°C 99% 6.3 mph W10.1 kmh W 13.6 mph21.9 kmh 30.06 in1017.9 mb 0.14 in3.6 mm 0.00 in0.0 mm 2.35 in59.7 mm
04:15 PM 35.4°F1.9°C 35.2°F1.8°C 99% 6.4 mph W10.3 kmh W 15.2 mph24.5 kmh 30.05 in1017.6 mb 0.14 in3.6 mm 0.00 in0.0 mm 2.36 in59.9 mm
04:20 PM 35.4°F1.9°C 35.2°F1.8°C 99% 6.5 mph WSW10.5 kmh WSW 15.2 mph24.5 kmh 30.05 in1017.6 mb 0.13 in3.3 mm 0.00 in0.0 mm 2.36 in59.9 mm
04:25 PM 35.2°F1.8°C 35.0°F1.7°C 99% 6.5 mph W10.5 kmh W 14.5 mph23.3 kmh 30.05 in1017.6 mb 0.12 in3.0 mm 0.00 in0.0 mm 2.37 in60.2 mm
04:30 PM 35.2°F1.8°C 35.0°F1.7°C 99% 5.9 mph WNW9.5 kmh WNW 14.5 mph23.3 kmh 30.05 in1017.6 mb 0.11 in2.8 mm 0.00 in0.0 mm 2.39 in60.7 mm
04:35 PM 35.2°F1.8°C 35.0°F1.7°C 99% 5.9 mph NW9.5 kmh NW 13.6 mph21.9 kmh 30.06 in1017.9 mb 0.11 in2.8 mm 0.00 in0.0 mm 2.40 in61.0 mm
04:40 PM 35.2°F1.8°C 35.0°F1.7°C 99% 6.4 mph NW10.3 kmh NW 14.5 mph23.3 kmh 30.07 in1018.3 mb 0.12 in3.0 mm 0.12 in3.0 mm 2.42 in61.5 mm
04:45 PM 35.4°F1.9°C 35.2°F1.8°C 99% 5.8 mph WNW9.3 kmh WNW 14.5 mph23.3 kmh 30.08 in1018.6 mb 0.12 in3.0 mm 0.00 in0.0 mm 2.43 in61.7 mm
04:50 PM 35.1°F1.7°C 34.8°F1.6°C 99% 4.9 mph WNW7.9 kmh WNW 14.5 mph23.3 kmh 30.06 in1017.9 mb 0.11 in2.8 mm 0.00 in0.0 mm 2.43 in61.7 mm
04:55 PM 34.7°F1.5°C 34.5°F1.4°C 99% 5.0 mph W8.0 kmh W 12.1 mph19.5 kmh 30.05 in1017.6 mb 0.11 in2.8 mm 0.00 in0.0 mm 2.44 in62.0 mm
05:00 PM 34.9°F1.6°C 34.6°F1.4°C 99% 5.8 mph W9.3 kmh W 13.0 mph20.9 kmh 30.06 in1017.9 mb 0.11 in2.8 mm 0.00 in0.0 mm 2.46 in62.5 mm
05:05 PM 35.1°F1.7°C 34.8°F1.6°C 99% 5.5 mph W8.9 kmh W 13.6 mph21.9 kmh 30.05 in1017.6 mb 0.11 in2.8 mm 0.00 in0.0 mm 2.46 in62.5 mm
05:10 PM 35.1°F1.7°C 34.8°F1.6°C 99% 5.3 mph W8.5 kmh W 13.6 mph21.9 kmh 30.05 in1017.6 mb 0.12 in3.0 mm 0.12 in3.0 mm 2.47 in62.7 mm
05:15 PM 35.1°F1.7°C 34.8°F1.6°C 99% 5.6 mph WNW9.0 kmh WNW 13.6 mph21.9 kmh 30.05 in1017.6 mb 0.12 in3.0 mm 0.00 in0.0 mm 2.48 in63.0 mm
05:20 PM 34.9°F1.6°C 34.6°F1.4°C 99% 5.6 mph W9.0 kmh W 13.6 mph21.9 kmh 30.05 in1017.6 mb 0.12 in3.0 mm 0.00 in0.0 mm 2.49 in63.2 mm
05:25 PM 34.9°F1.6°C 34.6°F1.4°C 99% 5.8 mph W9.3 kmh W 13.6 mph21.9 kmh 30.04 in1017.3 mb 0.13 in3.3 mm 0.12 in3.0 mm 2.52 in64.0 mm
05:30 PM 34.7°F1.5°C 34.5°F1.4°C 99% 5.6 mph WNW9.0 kmh WNW 11.4 mph18.3 kmh 30.04 in1017.3 mb 0.15 in3.8 mm 0.24 in6.1 mm 2.54 in64.5 mm
05:35 PM 34.5°F1.4°C 34.3°F1.3°C 99% 5.2 mph W8.4 kmh W 13.0 mph20.9 kmh 30.04 in1017.3 mb 0.18 in4.6 mm 0.36 in9.1 mm 2.59 in65.8 mm
05:40 PM 34.0°F1.1°C 33.7°F0.9°C 99% 5.5 mph W8.9 kmh W 13.0 mph20.9 kmh 30.04 in1017.3 mb 0.17 in4.3 mm 0.00 in0.0 mm 2.59 in65.8 mm
05:45 PM 33.4°F0.8°C 33.2°F0.7°C 99% 5.6 mph W9.0 kmh W 13.0 mph20.9 kmh 30.05 in1017.6 mb 0.19 in4.8 mm 0.24 in6.1 mm 2.62 in66.5 mm
05:50 PM 33.3°F0.7°C 33.0°F0.6°C 99% 5.6 mph W9.0 kmh W 13.0 mph20.9 kmh 30.05 in1017.6 mb 0.19 in4.8 mm 0.00 in0.0 mm 2.63 in66.8 mm
05:55 PM 33.1°F0.6°C 32.8°F0.4°C 99% 5.5 mph WSW8.9 kmh WSW 13.0 mph20.9 kmh 30.04 in1017.3 mb 0.21 in5.3 mm 0.24 in6.1 mm 2.66 in67.6 mm
06:00 PM 33.1°F0.6°C 32.8°F0.4°C 99% 5.5 mph WSW8.9 kmh WSW 11.4 mph18.3 kmh 30.04 in1017.3 mb 0.21 in5.3 mm 0.00 in0.0 mm 2.67 in67.8 mm
06:05 PM 33.1°F0.6°C 32.8°F0.4°C 99% 6.0 mph W9.7 kmh W 13.0 mph20.9 kmh 30.04 in1017.3 mb 0.24 in6.1 mm 0.36 in9.1 mm 2.69 in68.3 mm
06:10 PM 33.3°F0.7°C 33.0°F0.6°C 99% 5.9 mph W9.5 kmh W 13.0 mph20.9 kmh 30.04 in1017.3 mb 0.25 in6.4 mm 0.12 in3.0 mm 2.72 in69.1 mm
06:15 PM 33.4°F0.8°C 33.2°F0.7°C 99% 6.2 mph W10.0 kmh W 14.5 mph23.3 kmh 30.04 in1017.3 mb 0.26 in6.6 mm 0.12 in3.0 mm 2.75 in69.9 mm
06:20 PM 33.6°F0.9°C 33.4°F0.8°C 99% 6.3 mph W10.1 kmh W 14.5 mph23.3 kmh 30.04 in1017.3 mb 0.30 in7.6 mm 0.48 in12.2 mm 2.79 in70.9 mm
06:25 PM 33.8°F1.0°C 33.6°F0.9°C 99% 5.6 mph W9.0 kmh W 13.6 mph21.9 kmh 30.04 in1017.3 mb 0.30 in7.6 mm 0.00 in0.0 mm 2.81 in71.4 mm
06:30 PM 34.0°F1.1°C 33.7°F0.9°C 99% 5.7 mph WSW9.2 kmh WSW 13.6 mph21.9 kmh 30.04 in1017.3 mb 0.30 in7.6 mm 0.00 in0.0 mm 2.85 in72.4 mm
06:35 PM 34.2°F1.2°C 33.9°F1.1°C 99% 6.1 mph W9.8 kmh W 14.5 mph23.3 kmh 30.03 in1016.9 mb 0.28 in7.1 mm 0.00 in0.0 mm 2.87 in72.9 mm
06:40 PM 34.3°F1.3°C 34.1°F1.2°C 99% 6.3 mph W10.1 kmh W 14.5 mph23.3 kmh 30.04 in1017.3 mb 0.30 in7.6 mm 0.24 in6.1 mm 2.88 in73.2 mm
06:45 PM 34.5°F1.4°C 34.3°F1.3°C 99% 5.9 mph W9.5 kmh W 13.6 mph21.9 kmh 30.04 in1017.3 mb 0.27 in6.9 mm 0.00 in0.0 mm 2.89 in73.4 mm
06:50 PM 34.5°F1.4°C 34.3°F1.3°C 99% 5.1 mph W8.2 kmh W 13.6 mph21.9 kmh 30.03 in1016.9 mb 0.27 in6.9 mm 0.00 in0.0 mm 2.91 in73.9 mm
06:55 PM 34.7°F1.5°C 34.5°F1.4°C 99% 5.3 mph W8.5 kmh W 11.4 mph18.3 kmh 30.03 in1016.9 mb 0.25 in6.4 mm 0.00 in0.0 mm 2.91 in73.9 mm
07:00 PM 34.9°F1.6°C 34.6°F1.4°C 99% 5.0 mph W8.0 kmh W 11.4 mph18.3 kmh 30.04 in1017.3 mb 0.24 in6.1 mm 0.00 in0.0 mm 2.92 in74.2 mm
07:05 PM 35.1°F1.7°C 34.8°F1.6°C 99% 4.7 mph WSW7.6 kmh WSW 10.7 mph17.2 kmh 30.03 in1016.9 mb 0.24 in6.1 mm 0.00 in0.0 mm 2.93 in74.4 mm
07:10 PM 35.2°F1.8°C 35.0°F1.7°C 99% 5.2 mph WSW8.4 kmh WSW 10.7 mph17.2 kmh 30.03 in1016.9 mb 0.21 in5.3 mm 0.00 in0.0 mm 2.94 in74.7 mm
07:15 PM 35.4°F1.9°C 35.2°F1.8°C 99% 5.3 mph WSW8.5 kmh WSW 13.0 mph20.9 kmh 30.03 in1016.9 mb 0.21 in5.3 mm 0.00 in0.0 mm 2.96 in75.2 mm
07:20 PM 35.4°F1.9°C 35.2°F1.8°C 99% 5.6 mph WSW9.0 kmh WSW 13.0 mph20.9 kmh 30.03 in1016.9 mb 0.19 in4.8 mm 0.00 in0.0 mm 2.98 in75.7 mm
07:25 PM 35.4°F1.9°C 35.2°F1.8°C 99% 5.9 mph W9.5 kmh W 15.2 mph24.5 kmh 30.03 in1016.9 mb 0.18 in4.6 mm 0.00 in0.0 mm 2.99 in75.9 mm
07:30 PM 35.4°F1.9°C 35.2°F1.8°C 99% 5.8 mph W9.3 kmh W 15.2 mph24.5 kmh 30.02 in1016.6 mb 0.14 in3.6 mm 0.00 in0.0 mm 3.00 in76.2 mm
07:35 PM 35.4°F1.9°C 35.2°F1.8°C 99% 6.0 mph W9.7 kmh W 14.5 mph23.3 kmh 30.03 in1016.9 mb 0.15 in3.8 mm 0.12 in3.0 mm 3.02 in76.7 mm
07:40 PM 35.4°F1.9°C 35.2°F1.8°C 99% 6.8 mph W10.9 kmh W 14.5 mph23.3 kmh 30.02 in1016.6 mb 0.15 in3.8 mm 0.00 in0.0 mm 3.05 in77.5 mm
07:45 PM 35.4°F1.9°C 35.2°F1.8°C 99% 6.6 mph W10.6 kmh W 14.5 mph23.3 kmh 30.02 in1016.6 mb 0.17 in4.3 mm 0.24 in6.1 mm 3.06 in77.7 mm
07:50 PM 35.4°F1.9°C 35.2°F1.8°C 99% 6.1 mph W9.8 kmh W 14.5 mph23.3 kmh 30.02 in1016.6 mb 0.18 in4.6 mm 0.12 in3.0 mm 3.08 in78.2 mm
07:55 PM 35.6°F2.0°C 35.4°F1.9°C 99% 6.8 mph W10.9 kmh W 14.5 mph23.3 kmh 30.02 in1016.6 mb 0.18 in4.6 mm 0.00 in0.0 mm 3.09 in78.5 mm
08:00 PM 35.8°F2.1°C 35.5°F1.9°C 99% 6.8 mph W10.9 kmh W 13.6 mph21.9 kmh 30.02 in1016.6 mb 0.19 in4.8 mm 0.01 in0.3 mm 3.11 in79.0 mm
08:05 PM 36.0°F2.2°C 35.7°F2.1°C 99% 5.3 mph W8.5 kmh W 12.1 mph19.5 kmh 30.02 in1016.6 mb 0.19 in4.8 mm 0.00 in0.0 mm 3.12 in79.2 mm
08:10 PM 36.1°F2.3°C 35.9°F2.2°C 99% 5.1 mph W8.2 kmh W 12.1 mph19.5 kmh 30.02 in1016.6 mb 0.19 in4.8 mm 0.00 in0.0 mm 3.13 in79.5 mm
08:15 PM 36.3°F2.4°C 36.1°F2.3°C 99% 6.3 mph W10.1 kmh W 13.0 mph20.9 kmh 30.01 in1016.3 mb 0.19 in4.8 mm 0.00 in0.0 mm 3.15 in80.0 mm
08:20 PM 36.3°F2.4°C 36.1°F2.3°C 99% 6.8 mph WSW10.9 kmh WSW 13.0 mph20.9 kmh 30.01 in1016.3 mb 0.19 in4.8 mm 0.00 in0.0 mm 3.17 in80.5 mm
08:25 PM 36.1°F2.3°C 35.9°F2.2°C 99% 6.0 mph WSW9.7 kmh WSW 13.6 mph21.9 kmh 30.01 in1016.3 mb 0.18 in4.6 mm 0.00 in0.0 mm 3.17 in80.5 mm
08:30 PM 36.1°F2.3°C 35.9°F2.2°C 99% 5.7 mph WSW9.2 kmh WSW 13.6 mph21.9 kmh 30.01 in1016.3 mb 0.19 in4.8 mm 0.12 in3.0 mm 3.19 in81.0 mm
08:35 PM 36.3°F2.4°C 36.1°F2.3°C 99% 6.1 mph WSW9.8 kmh WSW 13.6 mph21.9 kmh 30.01 in1016.3 mb 0.17 in4.3 mm 0.00 in0.0 mm 3.19 in81.0 mm
08:40 PM 36.7°F2.6°C 36.4°F2.4°C 99% 4.9 mph W7.9 kmh W 10.7 mph17.2 kmh 30.01 in1016.3 mb 0.15 in3.8 mm 0.00 in0.0 mm 3.20 in81.3 mm
08:45 PM 36.9°F2.7°C 36.6°F2.6°C 99% 4.2 mph W6.8 kmh W 9.8 mph15.8 kmh 30.01 in1016.3 mb 0.13 in3.3 mm 0.00 in0.0 mm 3.20 in81.3 mm
08:50 PM 37.2°F2.9°C 37.0°F2.8°C 99% 4.1 mph W6.6 kmh W 9.8 mph15.8 kmh 30.01 in1016.3 mb 0.13 in3.3 mm 0.00 in0.0 mm 3.21 in81.5 mm
08:55 PM 37.4°F3.0°C 37.1°F2.8°C 99% 4.1 mph WSW6.6 kmh WSW 8.3 mph13.4 kmh 30.01 in1016.3 mb 0.12 in3.0 mm 0.00 in0.0 mm 3.21 in81.5 mm
09:00 PM 37.4°F3.0°C 37.1°F2.8°C 99% 5.1 mph WSW8.2 kmh WSW 13.6 mph21.9 kmh 30.01 in1016.3 mb 0.12 in3.0 mm 0.00 in0.0 mm 3.22 in81.8 mm
09:05 PM 37.4°F3.0°C 37.1°F2.8°C 99% 5.0 mph W8.0 kmh W 13.6 mph21.9 kmh 30.00 in1015.9 mb 0.09 in2.3 mm 0.00 in0.0 mm 3.22 in81.8 mm
09:10 PM 37.4°F3.0°C 37.1°F2.8°C 99% 4.9 mph W7.9 kmh W 11.4 mph18.3 kmh 30.00 in1015.9 mb 0.08 in2.0 mm 0.00 in0.0 mm 3.22 in81.8 mm
09:15 PM 37.4°F3.0°C 37.1°F2.8°C 99% 5.6 mph W9.0 kmh W 15.2 mph24.5 kmh 30.00 in1015.9 mb 0.08 in2.0 mm 0.00 in0.0 mm 3.24 in82.3 mm
09:20 PM 37.6°F3.1°C 37.3°F2.9°C 99% 5.5 mph W8.9 kmh W 15.2 mph24.5 kmh 30.00 in1015.9 mb 0.08 in2.0 mm 0.00 in0.0 mm 3.25 in82.6 mm
09:25 PM 37.8°F3.2°C 37.5°F3.1°C 99% 5.3 mph W8.5 kmh W 11.4 mph18.3 kmh 30.01 in1016.3 mb 0.07 in1.8 mm 0.00 in0.0 mm 3.25 in82.6 mm
09:30 PM 37.8°F3.2°C 37.5°F3.1°C 99% 4.8 mph WSW7.7 kmh WSW 9.8 mph15.8 kmh 30.01 in1016.3 mb 0.06 in1.5 mm 0.00 in0.0 mm 3.25 in82.6 mm
09:35 PM 37.8°F3.2°C 37.5°F3.1°C 99% 4.0 mph W6.4 kmh W 9.8 mph15.8 kmh 30.00 in1015.9 mb 0.06 in1.5 mm 0.00 in0.0 mm 3.25 in82.6 mm
09:40 PM 37.8°F3.2°C 37.5°F3.1°C 99% 4.2 mph W6.8 kmh W 13.6 mph21.9 kmh 30.01 in1016.3 mb 0.06 in1.5 mm 0.00 in0.0 mm 3.26 in82.8 mm
09:45 PM 37.9°F3.3°C 37.7°F3.2°C 99% 4.6 mph WSW7.4 kmh WSW 13.6 mph21.9 kmh 30.01 in1016.3 mb 0.06 in1.5 mm 0.00 in0.0 mm 3.26 in82.8 mm
09:50 PM 37.8°F3.2°C 37.5°F3.1°C 99% 4.3 mph W6.9 kmh W 11.4 mph18.3 kmh 30.01 in1016.3 mb 0.06 in1.5 mm 0.00 in0.0 mm 3.27 in83.1 mm
09:55 PM 37.6°F3.1°C 37.3°F2.9°C 99% 6.0 mph W9.7 kmh W 12.1 mph19.5 kmh 30.01 in1016.3 mb 0.06 in1.5 mm 0.00 in0.0 mm 3.27 in83.1 mm
10:00 PM 37.2°F2.9°C 37.0°F2.8°C 99% 7.2 mph W11.6 kmh W 14.5 mph23.3 kmh 30.01 in1016.3 mb 0.06 in1.5 mm 0.00 in0.0 mm 3.28 in83.3 mm
10:05 PM 37.0°F2.8°C 36.8°F2.7°C 99% 6.5 mph W10.5 kmh W 14.5 mph23.3 kmh 30.01 in1016.3 mb 0.07 in1.8 mm 0.12 in3.0 mm 3.30 in83.8 mm
10:10 PM 36.9°F2.7°C 36.6°F2.6°C 99% 6.0 mph W9.7 kmh W 12.1 mph19.5 kmh 30.01 in1016.3 mb 0.07 in1.8 mm 0.00 in0.0 mm 3.30 in83.8 mm
10:15 PM 37.0°F2.8°C 36.8°F2.7°C 99% 5.9 mph WNW9.5 kmh WNW 13.6 mph21.9 kmh 30.01 in1016.3 mb 0.07 in1.8 mm 0.00 in0.0 mm 3.31 in84.1 mm
10:20 PM 37.2°F2.9°C 37.0°F2.8°C 99% 5.5 mph W8.9 kmh W 13.6 mph21.9 kmh 30.01 in1016.3 mb 0.06 in1.5 mm 0.00 in0.0 mm 3.31 in84.1 mm
10:25 PM 37.2°F2.9°C 37.0°F2.8°C 99% 5.0 mph W8.0 kmh W 11.4 mph18.3 kmh 30.01 in1016.3 mb 0.07 in1.8 mm 0.12 in3.0 mm 3.32 in84.3 mm
10:30 PM 37.2°F2.9°C 37.0°F2.8°C 99% 5.1 mph W8.2 kmh W 13.6 mph21.9 kmh 30.01 in1016.3 mb 0.07 in1.8 mm 0.00 in0.0 mm 3.32 in84.3 mm
10:35 PM 37.2°F2.9°C 37.0°F2.8°C 99% 5.3 mph W8.5 kmh W 15.9 mph25.6 kmh 30.01 in1016.3 mb 0.08 in2.0 mm 0.12 in3.0 mm 3.33 in84.6 mm
10:40 PM 37.0°F2.8°C 36.8°F2.7°C 99% 5.4 mph WSW8.7 kmh WSW 15.9 mph25.6 kmh 30.02 in1016.6 mb 0.07 in1.8 mm 0.00 in0.0 mm 3.33 in84.6 mm
10:45 PM 36.7°F2.6°C 36.4°F2.4°C 99% 5.5 mph WSW8.9 kmh WSW 15.9 mph25.6 kmh 30.01 in1016.3 mb 0.07 in1.8 mm 0.00 in0.0 mm 3.33 in84.6 mm
10:50 PM 36.5°F2.5°C 36.2°F2.3°C 99% 6.5 mph W10.5 kmh W 15.2 mph24.5 kmh 30.01 in1016.3 mb 0.07 in1.8 mm 0.00 in0.0 mm 3.34 in84.8 mm
10:55 PM 36.5°F2.5°C 36.2°F2.3°C 99% 6.8 mph W10.9 kmh W 16.8 mph27.0 kmh 30.01 in1016.3 mb 0.07 in1.8 mm 0.00 in0.0 mm 3.34 in84.8 mm
11:00 PM 36.5°F2.5°C 36.2°F2.3°C 99% 6.4 mph W10.3 kmh W 16.8 mph27.0 kmh 30.01 in1016.3 mb 0.07 in1.8 mm 0.00 in0.0 mm 3.35 in85.1 mm
11:05 PM 36.3°F2.4°C 36.1°F2.3°C 99% 6.9 mph W11.1 kmh W 15.2 mph24.5 kmh 30.02 in1016.6 mb 0.06 in1.5 mm 0.00 in0.0 mm 3.35 in85.1 mm
11:10 PM 36.3°F2.4°C 36.1°F2.3°C 99% 6.7 mph W10.8 kmh W 15.2 mph24.5 kmh 30.02 in1016.6 mb 0.07 in1.8 mm 0.12 in3.0 mm 3.37 in85.6 mm
11:15 PM 36.1°F2.3°C 35.9°F2.2°C 99% 6.4 mph W10.3 kmh W 15.9 mph25.6 kmh 30.02 in1016.6 mb 0.06 in1.5 mm 0.00 in0.0 mm 3.37 in85.6 mm
11:20 PM 36.1°F2.3°C 35.9°F2.2°C 99% 6.9 mph W11.1 kmh W 15.9 mph25.6 kmh 30.02 in1016.6 mb 0.07 in1.8 mm 0.12 in3.0 mm 3.38 in85.9 mm
11:25 PM 36.1°F2.3°C 35.9°F2.2°C 99% 6.5 mph W10.5 kmh W 14.5 mph23.3 kmh 30.02 in1016.6 mb 0.06 in1.5 mm 0.00 in0.0 mm 3.38 in85.9 mm
11:30 PM 36.1°F2.3°C 35.9°F2.2°C 99% 6.2 mph W10.0 kmh W 14.5 mph23.3 kmh 30.01 in1016.3 mb 0.07 in1.8 mm 0.12 in3.0 mm 3.39 in86.1 mm
11:35 PM 36.1°F2.3°C 35.9°F2.2°C 99% 6.8 mph W10.9 kmh W 14.5 mph23.3 kmh 30.01 in1016.3 mb 0.06 in1.5 mm 0.00 in0.0 mm 3.39 in86.1 mm
11:40 PM 36.0°F2.2°C 35.7°F2.1°C 99% 6.9 mph W11.1 kmh W 15.9 mph25.6 kmh 30.01 in1016.3 mb 0.07 in1.8 mm 0.12 in3.0 mm 3.40 in86.4 mm
11:45 PM 36.1°F2.3°C 35.9°F2.2°C 99% 6.5 mph W10.5 kmh W 15.9 mph25.6 kmh 30.01 in1016.3 mb 0.07 in1.8 mm 0.00 in0.0 mm 3.40 in86.4 mm
11:50 PM 36.1°F2.3°C 35.9°F2.2°C 99% 6.1 mph W9.8 kmh W 15.2 mph24.5 kmh 30.01 in1016.3 mb 0.06 in1.5 mm 0.00 in0.0 mm 3.40 in86.4 mm
11:55 PM 36.1°F2.3°C 35.9°F2.2°C 99% 6.0 mph W9.7 kmh W 13.6 mph21.9 kmh 30.02 in1016.6 mb 0.07 in1.8 mm 0.12 in3.0 mm 3.41 in86.6 mm